createdAt,value
2017-01-09T22:05:41.085Z,1013.16
2017-01-09T22:06:42.027Z,1013.16
2017-01-09T22:07:43.165Z,1013.19
2017-01-09T22:08:44.214Z,1013.17
2017-01-09T22:09:45.927Z,1013.11
2017-01-09T22:10:46.392Z,1013.16
2017-01-09T22:11:47.225Z,1013.19
2017-01-09T22:12:48.047Z,1013.16
2017-01-09T22:13:49.201Z,1013.15
2017-01-09T22:14:50.509Z,1013.15
2017-01-09T22:15:51.690Z,1013.17
2017-01-09T22:16:52.455Z,1013.21
2017-01-09T22:17:53.254Z,1013.16
2017-01-09T22:18:54.047Z,1013.15
2017-01-09T22:19:54.884Z,1013.19
2017-01-09T22:20:55.650Z,1013.2
2017-01-09T22:21:56.427Z,1013.15
2017-01-09T22:22:57.155Z,1013.12
2017-01-09T22:23:58.865Z,1013.13
2017-01-09T22:25:00.260Z,1013.11
2017-01-09T22:26:01.547Z,1013.1
2017-01-09T22:27:02.450Z,1013.05
2017-01-09T22:28:03.248Z,1013.03
2017-01-09T22:29:03.973Z,1012.94
2017-01-09T22:30:04.722Z,1012.94
2017-01-09T22:31:05.457Z,1012.93
2017-01-09T22:32:06.516Z,1012.91
2017-01-09T22:33:07.250Z,1012.89
2017-01-09T22:34:07.997Z,1012.85
2017-01-09T22:35:08.863Z,1012.81
2017-01-09T22:36:09.587Z,1012.81
2017-01-09T22:37:10.304Z,1012.72
2017-01-09T22:38:12.434Z,1012.76
2017-01-09T22:39:12.582Z,1012.73
2017-01-09T22:40:13.399Z,1012.72
2017-01-09T22:41:14.226Z,1012.74
2017-01-09T22:42:15.053Z,1012.72
2017-01-09T22:43:16.247Z,1012.67
2017-01-09T22:44:17.223Z,1012.68
2017-01-09T22:45:17.964Z,1012.64
2017-01-09T22:46:18.910Z,1012.63
2017-01-09T22:47:19.687Z,1012.63
2017-01-09T22:48:20.647Z,1012.63
2017-01-09T22:49:21.381Z,1012.59
2017-01-09T22:50:22.577Z,1012.56
2017-01-09T22:51:23.411Z,1012.54
2017-01-09T22:52:24.331Z,1012.53
2017-01-09T22:53:25.157Z,1012.52
2017-01-09T22:54:25.896Z,1012.52
2017-01-09T22:55:26.656Z,1012.51
2017-01-09T22:56:27.390Z,1012.49
2017-01-09T22:57:28.111Z,1012.5
2017-01-09T22:58:28.836Z,1012.53
2017-01-09T22:59:29.592Z,1012.49
2017-01-09T23:00:30.322Z,1012.54
2017-01-09T23:01:31.083Z,1012.59
2017-01-09T23:02:31.815Z,1012.59
2017-01-09T23:03:32.553Z,1012.55
2017-01-09T23:04:33.310Z,1012.5
2017-01-09T23:05:34.042Z,1012.5
2017-01-09T23:06:34.765Z,1012.5
2017-01-09T23:07:35.486Z,1012.43
2017-01-09T23:08:36.215Z,1012.42
2017-01-09T23:09:36.924Z,1012.41
2017-01-09T23:10:37.645Z,1012.44
2017-01-09T23:11:38.374Z,1012.39
2017-01-09T23:12:39.107Z,1012.4
2017-01-09T23:13:39.821Z,1012.37
2017-01-09T23:14:40.551Z,1012.32
2017-01-09T23:15:41.283Z,1012.28
2017-01-09T23:16:42.016Z,1012.25
2017-01-09T23:17:42.733Z,1012.29
2017-01-09T23:18:43.482Z,1012.2
2017-01-09T23:19:44.203Z,1012.21
2017-01-09T23:20:44.916Z,1012.19
2017-01-09T23:21:45.650Z,1012.16
2017-01-09T23:22:46.373Z,1012.2
2017-01-09T23:23:47.148Z,1012.19
2017-01-09T23:24:47.876Z,1012.16
2017-01-09T23:25:48.594Z,1012.13
2017-01-09T23:26:49.316Z,1012.17
2017-01-09T23:27:50.047Z,1012.13
2017-01-09T23:28:50.764Z,1012.11
2017-01-09T23:29:51.510Z,1012.08
2017-01-09T23:30:52.230Z,1012.06
2017-01-09T23:31:52.957Z,1012.05
2017-01-09T23:32:53.697Z,1012.03
2017-01-09T23:33:54.459Z,1011.96
2017-01-09T23:34:55.192Z,1011.95
2017-01-09T23:35:55.940Z,1011.91
2017-01-09T23:36:56.711Z,1011.91
2017-01-09T23:37:57.419Z,1011.83
2017-01-09T23:38:58.152Z,1011.8
2017-01-09T23:39:58.885Z,1011.78
2017-01-09T23:40:59.605Z,1011.78
2017-01-09T23:42:00.352Z,1011.75
2017-01-09T23:43:01.126Z,1011.76
2017-01-09T23:44:01.862Z,1011.7
2017-01-09T23:45:02.605Z,1011.69
2017-01-09T23:46:03.401Z,1011.69
2017-01-09T23:47:04.132Z,1011.61
2017-01-09T23:48:04.870Z,1011.6
2017-01-09T23:49:05.617Z,1011.59
2017-01-09T23:50:06.333Z,1011.58
2017-01-09T23:51:07.062Z,1011.56
2017-01-09T23:52:07.790Z,1011.5
2017-01-09T23:53:08.532Z,1011.52
2017-01-09T23:54:09.320Z,1011.55
2017-01-09T23:55:10.038Z,1011.46
2017-01-09T23:56:10.759Z,1011.48
2017-01-09T23:57:11.482Z,1011.46
2017-01-09T23:58:12.205Z,1011.46
2017-01-09T23:59:12.949Z,1011.44
